Time;durP1;ratioP1;P1;durP2;ratioP2;P2;SDS_P1;SDS_P2;PMS_P1;PMS_P2;Temp;Humidity;BMP_temperature;BMP_pressure;BME280_temperature;BME280_humidity;BME280_pressure;Samples;Min_cycle;Max_cycle;Signal;HPM_P1;HPM_P2
2022/07/30 00:01:36;;;;;;;5.97;4.35;;;;;;;21.96;66.67;100102.27;1720765;81;20987;-69
2022/07/30 00:04:01;;;;;;;9.60;5.00;;;;;;;21.92;66.87;100102.63;1722594;82;21139;-75
2022/07/30 00:06:27;;;;;;;10.43;5.35;;;;;;;21.86;67.00;100099.22;1702236;82;21011;-71
2022/07/30 00:08:56;;;;;;;5.80;5.30;;;;;;;21.85;67.16;100107.18;1701388;82;20947;-75
2022/07/30 00:11:24;;;;;;;6.08;5.05;;;;;;;21.87;66.46;100109.61;1719324;82;21043;-76
2022/07/30 00:13:53;;;;;;;10.03;5.58;;;;;;;21.87;66.30;100106.28;1728430;81;21039;-76
2022/07/30 00:16:20;;;;;;;6.28;4.90;;;;;;;21.88;66.33;100105.73;1719501;82;21548;-76
2022/07/30 00:18:48;;;;;;;8.98;5.78;;;;;;;21.89;66.38;100105.98;1710001;82;20972;-76
2022/07/30 00:21:14;;;;;;;5.70;4.90;;;;;;;21.90;66.42;100108.98;1720904;82;20975;-77
2022/07/30 00:23:42;;;;;;;5.65;4.90;;;;;;;21.94;66.33;100106.69;1708789;82;21090;-71
2022/07/30 00:26:10;;;;;;;9.25;4.95;;;;;;;22.00;66.09;100099.95;1668824;84;21164;-70
2022/07/30 00:28:37;;;;;;;6.75;4.62;;;;;;;22.07;65.74;100109.08;1668802;84;21181;-70
2022/07/30 00:31:04;;;;;;;5.67;4.58;;;;;;;22.10;65.53;100106.53;1699721;83;21029;-69
2022/07/30 00:33:31;;;;;;;5.58;4.95;;;;;;;22.12;65.21;100104.27;1675485;82;21454;-67
2022/07/30 00:35:58;;;;;;;5.05;4.50;;;;;;;22.11;65.06;100105.38;1685322;82;21129;-69
2022/07/30 00:38:28;;;;;;;9.95;6.28;;;;;;;22.11;65.04;100100.47;1675335;85;21073;-68
2022/07/30 00:40:57;;;;;;;6.35;4.37;;;;;;;22.12;64.88;100097.98;1675097;84;21007;-67
2022/07/30 00:43:24;;;;;;;11.05;4.78;;;;;;;22.11;64.92;100099.09;1692696;82;21028;-67
2022/07/30 00:45:50;;;;;;;6.42;5.50;;;;;;;22.09;65.10;100095.88;1701547;84;21016;-67
2022/07/30 00:48:17;;;;;;;6.10;5.50;;;;;;;22.06;65.17;100096.52;1687603;84;21537;-70
2022/07/30 00:50:46;;;;;;;4.35;3.92;;;;;;;22.05;65.34;100092.16;1691773;82;20976;-68
2022/07/30 00:53:14;;;;;;;4.15;3.80;;;;;;;22.06;65.46;100090.45;1697245;83;21288;-71
2022/07/30 00:55:41;;;;;;;11.70;4.65;;;;;;;22.04;65.49;100094.09;1742396;81;21003;-68
2022/07/30 00:58:08;;;;;;;5.22;4.55;;;;;;;22.02;65.62;100085.37;1694520;84;21050;-71
2022/07/30 01:00:37;;;;;;;6.30;4.58;;;;;;;22.03;65.69;100082.88;1705151;81;21059;-70
2022/07/30 01:03:06;;;;;;;7.03;4.12;;;;;;;22.04;65.67;100083.69;1699998;83;20987;-71
2022/07/30 01:05:33;;;;;;;5.35;4.40;;;;;;;22.03;65.69;100080.70;1704304;82;21354;-71
2022/07/30 01:08:00;;;;;;;5.22;3.72;;;;;;;22.02;65.67;100079.89;1695321;83;21049;-70
2022/07/30 01:10:28;;;;;;;4.92;4.42;;;;;;;22.02;65.57;100075.78;1715969;81;21595;-72
2022/07/30 01:12:55;;;;;;;7.22;4.67;;;;;;;22.01;65.63;100074.75;1726892;82;21548;-70
2022/07/30 01:15:23;;;;;;;7.03;4.62;;;;;;;22.01;65.51;100070.08;1736560;82;21106;-69
2022/07/30 01:17:49;;;;;;;6.05;4.45;;;;;;;22.02;65.32;100072.23;1731521;82;21106;-70
2022/07/30 01:20:22;;;;;;;5.40;4.37;;;;;;;22.01;65.26;100067.90;1726291;82;21047;-71
2022/07/30 01:23:29;;;;;;;9.03;4.58;;;;;;;22.02;65.17;100068.93;1733311;82;21019;-71
2022/07/30 01:26:01;;;;;;;4.75;4.03;;;;;;;22.04;65.01;100068.63;1731643;82;21532;-69
2022/07/30 01:28:37;;;;;;;5.58;5.00;;;;;;;22.04;64.94;100072.17;1728493;81;21053;-69
2022/07/30 01:31:06;;;;;;;5.55;4.37;;;;;;;22.01;65.11;100074.75;1666623;84;21004;-69
2022/07/30 01:33:42;;;;;;;4.72;4.00;;;;;;;21.93;65.47;100079.05;1699797;84;21060;-70
2022/07/30 01:36:10;;;;;;;4.55;4.15;;;;;;;21.83;65.82;100072.44;1692614;84;21068;-70
2022/07/30 01:38:38;;;;;;;5.15;4.65;;;;;;;21.75;66.29;100073.22;1693928;84;22286;-69
2022/07/30 01:41:05;;;;;;;10.13;4.62;;;;;;;21.68;66.65;100075.02;1687307;84;21026;-70
2022/07/30 01:43:34;;;;;;;9.68;4.58;;;;;;;21.62;66.85;100064.53;1648813;85;21485;-70
2022/07/30 01:46:02;;;;;;;4.55;4.17;;;;;;;21.58;66.94;100056.70;1673817;85;21608;-71
2022/07/30 01:48:31;;;;;;;8.60;4.70;;;;;;;21.58;67.07;100062.97;1666564;84;21541;-71
2022/07/30 01:51:01;;;;;;;5.90;5.20;;;;;;;21.57;67.07;100060.56;1655002;84;22088;-70
2022/07/30 01:53:32;;;;;;;5.87;5.03;;;;;;;21.58;67.03;100061.59;1677912;84;21120;-69
2022/07/30 01:56:00;;;;;;;6.60;4.33;;;;;;;21.60;67.05;100053.89;1690179;84;21647;-71
2022/07/30 01:58:32;;;;;;;4.75;4.15;;;;;;;21.63;66.97;100053.84;1671261;84;21217;-68
2022/07/30 02:01:03;;;;;;;5.58;4.65;;;;;;;21.62;66.89;100055.77;1683159;82;20961;-70
2022/07/30 02:03:31;;;;;;;5.92;4.80;;;;;;;21.62;66.95;100057.14;1699027;84;21124;-69
2022/07/30 02:06:04;;;;;;;5.67;4.97;;;;;;;21.60;67.02;100053.89;1698491;84;21131;-69
2022/07/30 02:08:47;;;;;;;9.55;4.45;;;;;;;21.57;67.03;100060.56;1701224;84;21057;-69
2022/07/30 02:13:52;;;;;;;9.03;5.30;;;;;;;21.48;67.58;100067.92;1657594;84;21538;-69
2022/07/30 02:16:25;;;;;;;4.93;4.40;;;;;;;21.39;68.05;100062.95;1699467;84;21016;-70
2022/07/30 02:19:01;;;;;;;;;;;;;;;21.30;68.51;100067.78;1704140;84;21033;-69
2022/07/30 02:21:33;;;;;;;5.55;5.05;;;;;;;21.25;68.93;100065.73;1708254;81;20213;-69
2022/07/30 02:24:00;;;;;;;9.50;5.10;;;;;;;21.19;69.25;100067.00;1694471;84;21551;-70
2022/07/30 02:26:28;;;;;;;6.10;5.50;;;;;;;21.14;69.54;100069.30;1694419;81;22144;-69
2022/07/30 02:28:56;;;;;;;5.42;4.92;;;;;;;21.11;69.82;100067.69;1693114;84;21498;-70
2022/07/30 02:31:24;;;;;;;6.55;4.95;;;;;;;21.06;70.05;100068.63;1678035;83;21109;-69
2022/07/30 02:33:55;;;;;;;9.08;6.15;;;;;;;21.04;70.13;100065.96;1714064;82;21271;-70
2022/07/30 02:36:23;;;;;;;8.75;5.47;;;;;;;21.03;70.33;100072.55;1718836;82;20921;-69
2022/07/30 02:38:50;;;;;;;6.08;5.45;;;;;;;21.05;70.46;100075.79;1728563;83;20999;-70
2022/07/30 02:41:22;;;;;;;5.28;4.78;;;;;;;21.07;70.49;100074.34;1696724;83;21099;-70
2022/07/30 02:43:51;;;;;;;12.60;5.05;;;;;;;21.08;70.70;100074.60;1699452;84;21022;-70
2022/07/30 02:46:21;;;;;;;7.37;5.83;;;;;;;21.02;70.91;100075.02;1708661;82;21034;-70
2022/07/30 02:48:49;;;;;;;8.83;7.00;;;;;;;20.96;71.38;100074.91;1695495;84;21050;-73
2022/07/30 02:51:20;;;;;;;11.75;6.37;;;;;;;20.94;71.77;100075.77;1716421;81;20975;-72
2022/07/30 02:53:48;;;;;;;13.78;6.00;;;;;;;20.87;72.14;100077.55;1718849;82;21019;-69
2022/07/30 02:56:16;;;;;;;7.40;5.97;;;;;;;20.83;72.21;100073.27;1723666;82;21079;-70
2022/07/30 02:58:44;;;;;;;13.45;6.22;;;;;;;20.84;72.34;100075.44;1723705;82;21600;-71
2022/07/30 03:01:13;;;;;;;13.40;6.05;;;;;;;20.86;72.40;100080.06;1722614;81;20995;-71
2022/07/30 03:03:42;;;;;;;8.73;6.08;;;;;;;20.87;72.42;100082.47;1728618;82;21087;-72
2022/07/30 03:06:12;;;;;;;11.25;6.45;;;;;;;20.90;72.46;100078.32;1699473;83;21002;-70
2022/07/30 03:08:42;;;;;;;14.95;6.28;;;;;;;20.95;72.41;100078.20;1653192;86;21610;-71
2022/07/30 03:11:10;;;;;;;11.53;5.85;;;;;;;20.97;72.32;100080.05;1709297;83;21099;-69
2022/07/30 03:13:40;;;;;;;9.80;6.40;;;;;;;21.02;72.13;100084.59;1692971;83;21008;-69
2022/07/30 03:16:12;;;;;;;6.50;5.85;;;;;;;21.02;72.02;100082.67;1696523;84;22204;-70
2022/07/30 03:18:40;;;;;;;6.30;5.70;;;;;;;21.03;72.05;100081.56;1695227;84;21857;-69
2022/07/30 03:21:09;;;;;;;12.35;5.70;;;;;;;21.03;72.00;100081.56;1649471;85;21587;-70
2022/07/30 03:23:37;;;;;;;13.25;7.30;;;;;;;21.03;72.08;100086.22;1700342;83;21950;-69
2022/07/30 03:26:06;;;;;;;10.40;6.72;;;;;;;20.99;72.15;100083.30;1706189;84;21052;-69
2022/07/30 03:28:36;;;;;;;13.35;6.47;;;;;;;20.99;72.26;100083.30;1680725;83;21536;-70
2022/07/30 03:31:04;;;;;;;8.23;6.12;;;;;;;20.99;72.34;100081.13;1667019;84;21103;-69
2022/07/30 03:33:34;;;;;;;9.63;5.33;;;;;;;20.95;72.43;100087.78;1664716;85;21483;-70
2022/07/30 03:36:01;;;;;;;6.62;5.83;;;;;;;20.91;72.57;100078.55;1645643;86;21492;-70
2022/07/30 03:38:28;;;;;;;13.13;7.10;;;;;;;20.90;72.66;100082.42;1649245;85;20970;-68
2022/07/30 03:40:56;;;;;;;6.55;5.33;;;;;;;20.89;72.81;100083.53;1662315;84;21443;-71
2022/07/30 03:43:24;;;;;;;8.55;5.75;;;;;;;20.88;72.99;100081.91;1672846;84;21104;-71
2022/07/30 03:45:52;;;;;;;15.23;6.03;;;;;;;20.87;73.06;100078.92;1672657;84;21104;-70
2022/07/30 03:48:20;;;;;;;6.22;5.62;;;;;;;20.88;73.21;100077.81;1689730;82;21839;-72
2022/07/30 03:50:47;;;;;;;7.75;6.35;;;;;;;20.88;73.25;100079.17;1680790;82;21111;-73
2022/07/30 03:53:16;;;;;;;9.30;6.35;;;;;;;20.84;73.32;100073.52;1676770;84;21059;-72
2022/07/30 03:55:56;;;;;;;8.48;6.22;;;;;;;20.79;73.54;100077.73;1695899;84;21001;-70
2022/07/30 03:58:43;;;;;;;11.48;7.85;;;;;;;20.81;73.73;100072.75;1706826;84;21106;-71
2022/07/30 04:01:10;;;;;;;11.08;6.67;;;;;;;20.82;73.70;100073.01;1701070;81;21169;-70
2022/07/30 04:03:38;;;;;;;9.25;6.78;;;;;;;20.84;73.80;100075.44;1707536;83;21006;-69
2022/07/30 04:06:07;;;;;;;10.48;6.40;;;;;;;20.84;73.93;100072.16;1730230;81;21114;-69
2022/07/30 04:08:34;;;;;;;7.17;6.22;;;;;;;20.85;73.90;100072.97;1706520;82;21011;-69
2022/07/30 04:11:02;;;;;;;9.68;6.35;;;;;;;20.88;73.81;100070.97;1731019;81;21035;-69
2022/07/30 04:13:33;;;;;;;7.22;6.50;;;;;;;20.89;73.91;100074.77;1736231;82;21156;-68
2022/07/30 04:16:19;;;;;;;9.88;6.53;;;;;;;20.92;73.92;100075.26;1720460;82;20986;-69
2022/07/30 04:18:50;;;;;;;7.65;7.03;;;;;;;20.85;73.97;100076.52;1683175;84;21086;-70
2022/07/30 04:21:19;;;;;;;12.13;8.08;;;;;;;20.82;74.14;100077.11;1717128;81;21134;-70
2022/07/30 04:23:47;;;;;;;11.35;7.42;;;;;;;20.76;74.38;100074.81;1719129;82;21108;-71
2022/07/30 04:26:14;;;;;;;8.20;6.67;;;;;;;20.71;74.68;100073.01;1724274;82;21265;-71
2022/07/30 04:28:42;;;;;;;8.33;7.53;;;;;;;20.68;74.80;100076.34;1717580;81;20975;-69
2022/07/30 04:31:10;;;;;;;8.20;7.40;;;;;;;20.69;74.87;100072.50;1714182;82;21003;-69
2022/07/30 04:33:38;;;;;;;8.00;7.17;;;;;;;20.70;74.84;100076.85;1718857;82;20990;-69
2022/07/30 04:36:09;;;;;;;7.83;6.03;;;;;;;20.78;74.64;100067.09;1709284;81;21136;-67
2022/07/30 04:38:39;;;;;;;11.90;6.90;;;;;;;20.86;74.71;100074.00;1724279;81;21103;-69
2022/07/30 04:41:06;;;;;;;7.83;7.03;;;;;;;20.90;74.49;100071.48;1716537;82;20979;-68
2022/07/30 04:43:42;;;;;;;13.28;7.47;;;;;;;20.91;74.37;100068.98;1716743;81;21030;-70
2022/07/30 04:46:10;;;;;;;21.87;8.18;;;;;;;20.94;74.29;100068.93;1711448;81;21054;-70
2022/07/30 04:48:36;;;;;;;10.98;7.90;;;;;;;20.95;74.15;100065.09;1706365;82;21539;-70
2022/07/30 04:51:13;;;;;;;10.43;7.50;;;;;;;20.96;74.11;100066.71;1737010;81;21092;-70
2022/07/30 04:53:41;;;;;;;9.35;7.10;;;;;;;21.01;74.08;100068.74;1726427;82;21073;-70
2022/07/30 04:56:09;;;;;;;10.40;7.78;;;;;;;21.09;73.84;100069.95;1701819;83;21000;-72
2022/07/30 04:58:40;;;;;;;9.73;7.28;;;;;;;21.16;73.63;100075.81;1696054;84;21069;-70
2022/07/30 05:01:07;;;;;;;12.75;6.60;;;;;;;21.20;73.37;100077.61;1698115;84;21024;-69
2022/07/30 05:03:35;;;;;;;10.20;6.95;;;;;;;21.23;73.16;100073.46;1616053;87;21166;-70
2022/07/30 05:06:02;;;;;;;10.58;7.12;;;;;;;21.24;73.17;100080.00;1682957;84;21525;-71
2022/07/30 05:08:31;;;;;;;11.10;7.62;;;;;;;21.27;73.13;100082.10;1642802;85;21553;-69
2022/07/30 05:11:00;;;;;;;10.53;7.92;;;;;;;21.36;72.92;100071.77;1648079;85;21544;-69
2022/07/30 05:13:29;;;;;;;12.73;8.48;;;;;;;21.46;72.57;100079.72;1669931;84;21048;-67
2022/07/30 05:15:57;;;;;;;9.95;8.53;;;;;;;21.52;72.24;100075.75;1698512;84;20968;-69
2022/07/30 05:18:25;;;;;;;9.75;8.15;;;;;;;21.59;71.94;100074.72;1700265;82;21028;-68
2022/07/30 05:20:53;;;;;;;13.70;8.63;;;;;;;21.63;71.70;100077.11;1703318;82;20981;-69
2022/07/30 05:23:22;;;;;;;12.28;9.18;;;;;;;21.66;71.56;100077.84;1700928;83;21466;-71
2022/07/30 05:26:04;;;;;;;14.07;7.20;;;;;;;21.68;71.43;100075.58;1692193;84;20957;-70
2022/07/30 05:28:33;;;;;;;9.08;7.58;;;;;;;21.74;71.30;100079.81;1638489;85;21822;-72
2022/07/30 05:31:02;;;;;;;15.08;8.35;;;;;;;21.79;71.26;100080.23;1680563;84;21058;-69
2022/07/30 05:33:29;;;;;;;12.78;8.20;;;;;;;21.85;71.17;100078.42;1678426;84;21607;-70
2022/07/30 05:35:59;;;;;;;15.05;9.70;;;;;;;21.92;71.06;100080.72;1666864;84;22332;-70
2022/07/30 05:38:25;;;;;;;14.98;8.98;;;;;;;22.00;70.70;100079.41;1703420;82;21062;-69
2022/07/30 05:41:12;;;;;;;15.83;10.10;;;;;;;22.07;70.27;100082.48;1646004;87;21890;-71
2022/07/30 05:43:42;;;;;;;18.07;8.88;;;;;;;22.13;69.76;100083.16;1632700;87;21596;-71
2022/07/30 05:46:09;;;;;;;13.45;8.53;;;;;;;22.20;69.22;100092.30;1656113;84;21028;-72
2022/07/30 05:48:36;;;;;;;16.25;8.80;;;;;;;22.28;68.65;100099.17;1703352;84;21356;-73
2022/07/30 05:51:04;;;;;;;14.07;9.48;;;;;;;22.36;68.12;100098.95;1694812;82;21037;-71
2022/07/30 05:53:33;;;;;;;13.88;8.60;;;;;;;22.41;67.06;100096.87;1694765;84;22068;-70
2022/07/30 05:56:13;;;;;;;14.68;8.95;;;;;;;22.42;66.88;100091.64;1699057;82;20982;-72
2022/07/30 05:58:46;;;;;;;;;;;;;;;22.43;67.17;100098.74;1688854;82;20938;-70
2022/07/30 06:01:15;;;;;;;15.23;8.98;;;;;;;22.46;66.83;100095.35;1666651;84;20251;-69
2022/07/30 06:03:42;;;;;;;9.15;7.08;;;;;;;22.43;66.92;100093.82;1670690;84;21028;-72
2022/07/30 06:06:17;;;;;;;10.03;7.03;;;;;;;22.46;66.71;100095.91;1686087;82;21166;-70
2022/07/30 06:08:45;;;;;;;7.35;5.78;;;;;;;22.50;66.71;100094.14;1687825;84;21562;-69
2022/07/30 06:11:13;;;;;;;9.53;6.47;;;;;;;22.49;66.87;100097.45;1690381;84;20898;-69
2022/07/30 06:13:43;;;;;;;8.53;6.45;;;;;;;22.55;66.85;100100.85;1703369;84;20996;-69
2022/07/30 06:16:12;;;;;;;7.00;6.30;;;;;;;22.61;66.37;100100.39;1702440;84;20993;-70
2022/07/30 06:18:40;;;;;;;16.07;7.33;;;;;;;22.70;65.42;100097.69;1700675;84;20969;-70
2022/07/30 06:21:09;;;;;;;8.65;6.92;;;;;;;22.78;64.96;100096.89;1698986;82;21092;-70
2022/07/30 06:23:56;;;;;;;11.80;6.90;;;;;;;22.85;65.13;100096.42;1697476;84;21012;-68
2022/07/30 06:26:25;;;;;;;8.63;6.42;;;;;;;22.83;64.45;100096.73;1699963;83;21036;-69
2022/07/30 06:28:55;;;;;;;11.45;8.88;;;;;;;22.84;64.48;100096.17;1668045;84;21040;-74
2022/07/30 06:31:24;;;;;;;8.28;6.10;;;;;;;22.86;64.11;100098.05;1702350;82;21805;-69
2022/07/30 06:33:52;;;;;;;13.75;8.83;;;;;;;22.91;63.99;100093.20;1703620;84;20993;-70
2022/07/30 06:36:19;;;;;;;12.55;7.55;;;;;;;23.00;63.50;100087.72;1702390;84;20972;-72
2022/07/30 06:38:54;;;;;;;8.85;6.05;;;;;;;23.12;64.21;100087.87;1689594;84;21047;-73
2022/07/30 06:41:22;;;;;;;7.83;6.80;;;;;;;23.25;65.62;100081.98;1669088;84;20997;-69
2022/07/30 06:43:51;;;;;;;18.32;9.13;;;;;;;23.33;66.11;100086.09;1663291;84;21828;-70
2022/07/30 06:46:35;;;;;;;11.00;7.40;;;;;;;23.36;66.46;100079.94;1666455;84;21096;-70
2022/07/30 06:49:02;;;;;;;11.73;8.75;;;;;;;23.40;66.01;100082.86;1707069;82;20916;-69
2022/07/30 06:51:33;;;;;;;8.18;7.35;;;;;;;23.48;65.34;100079.88;1732582;82;21024;-72
2022/07/30 06:54:00;;;;;;;12.05;6.78;;;;;;;23.55;64.52;100085.70;1746792;81;21090;-70
2022/07/30 06:56:29;;;;;;;13.22;7.30;;;;;;;23.48;64.45;100078.50;1744537;81;21165;-71
2022/07/30 06:58:58;;;;;;;7.87;6.92;;;;;;;23.41;64.76;100085.26;1731032;82;21603;-71
2022/07/30 07:01:44;;;;;;;13.38;6.95;;;;;;;23.40;64.86;100085.61;1702212;84;21058;-70
2022/07/30 07:04:11;;;;;;;11.03;9.53;;;;;;;23.38;64.42;100079.62;1686235;84;21099;-71
2022/07/30 07:06:39;;;;;;;11.75;7.62;;;;;;;23.40;64.16;100082.86;1701850;83;21070;-71
2022/07/30 07:09:06;;;;;;;10.70;7.35;;;;;;;23.41;64.12;100081.14;1722687;81;21585;-71
2022/07/30 07:11:45;;;;;;;13.05;6.35;;;;;;;23.46;64.14;100076.89;1712508;83;20984;-70
2022/07/30 07:14:14;;;;;;;9.85;5.92;;;;;;;23.57;63.80;100079.30;1719480;81;21052;-71
2022/07/30 07:16:41;;;;;;;11.33;6.90;;;;;;;23.63;62.59;100076.05;1701487;82;21045;-71
2022/07/30 07:19:14;;;;;;;11.53;7.22;;;;;;;23.71;62.30;100078.53;1694293;84;21040;-71
2022/07/30 07:21:42;;;;;;;11.28;6.10;;;;;;;23.80;61.84;100078.73;1703339;84;21185;-71
2022/07/30 07:24:09;;;;;;;5.92;5.33;;;;;;;23.90;61.76;100084.45;1673198;84;21089;-71
2022/07/30 07:26:47;;;;;;;6.83;5.35;;;;;;;23.99;61.27;100079.72;1706552;81;21039;-72
2022/07/30 07:29:13;;;;;;;6.87;5.50;;;;;;;24.04;59.61;100076.79;1707593;82;21047;-72
2022/07/30 07:31:40;;;;;;;10.55;5.45;;;;;;;24.11;59.70;100077.66;1699406;84;21553;-70
2022/07/30 07:34:07;;;;;;;8.75;6.30;;;;;;;24.17;59.77;100072.25;1709159;81;21247;-70
2022/07/30 07:36:35;;;;;;;6.92;4.60;;;;;;;24.23;59.39;100076.41;1713706;82;21074;-72
2022/07/30 07:39:08;;;;;;;5.78;4.47;;;;;;;24.26;58.98;100076.57;1728181;82;21530;-71
2022/07/30 07:41:33;;;;;;;10.93;5.42;;;;;;;24.29;58.46;100070.97;1735825;82;21540;-71
2022/07/30 07:44:00;;;;;;;4.55;4.25;;;;;;;24.36;58.14;100067.14;1731027;81;21063;-71
2022/07/30 07:46:29;;;;;;;6.62;5.10;;;;;;;24.41;57.89;100072.45;1709095;83;21171;-73
2022/07/30 07:48:59;;;;;;;6.12;3.90;;;;;;;24.47;57.41;100067.53;1727615;82;20940;-71
2022/07/30 07:51:34;;;;;;;4.62;3.98;;;;;;;24.55;57.01;100067.51;1728522;81;20955;-70
2022/07/30 07:54:02;;;;;;;4.33;3.92;;;;;;;24.65;56.47;100065.71;1715829;82;21572;-71
2022/07/30 07:56:29;;;;;;;10.98;6.62;;;;;;;24.69;56.07;100061.18;1708335;83;21118;-69
2022/07/30 07:58:57;;;;;;;7.17;5.17;;;;;;;24.76;55.85;100058.69;1682298;85;21173;-70
2022/07/30 08:01:26;;;;;;;6.92;4.67;;;;;;;24.86;55.81;100061.60;1725659;82;21046;-72
2022/07/30 08:04:11;;;;;;;13.15;8.25;;;;;;;24.94;55.54;100058.00;1726130;82;21498;-70
2022/07/30 08:06:40;;;;;;;8.05;5.05;;;;;;;25.03;55.61;100062.08;1662014;83;21061;-72
2022/07/30 08:09:26;;;;;;;5.75;4.70;;;;;;;25.08;54.75;100064.02;1725689;82;21006;-71
2022/07/30 08:11:55;;;;;;;10.18;8.15;;;;;;;25.10;54.74;100062.33;1706150;81;21199;-70
2022/07/30 08:14:26;;;;;;;13.93;10.30;;;;;;;25.16;54.55;100063.17;1665996;84;21603;-69
2022/07/30 08:17:14;;;;;;;7.70;5.28;;;;;;;25.23;54.28;100057.69;1720974;82;21565;-69
2022/07/30 08:19:49;;;;;;;6.75;4.87;;;;;;;25.33;54.22;100057.24;1715444;81;21106;-70
2022/07/30 08:22:19;;;;;;;4.37;3.98;;;;;;;25.42;54.10;100053.26;1724288;82;21516;-71
2022/07/30 08:24:46;;;;;;;9.30;5.47;;;;;;;25.53;53.97;100055.82;1716745;81;21763;-69
2022/07/30 08:27:13;;;;;;;5.17;4.20;;;;;;;25.63;53.27;100044.97;1701046;83;20975;-72
2022/07/30 08:29:42;;;;;;;6.17;3.77;;;;;;;25.72;52.87;100039.35;1704237;83;21007;-71
2022/07/30 08:32:10;;;;;;;4.90;4.20;;;;;;;25.83;52.68;100042.71;1691644;83;21075;-71
2022/07/30 08:34:40;;;;;;;6.42;4.78;;;;;;;25.93;52.59;100035.95;1699213;81;20970;-68
2022/07/30 08:37:09;;;;;;;13.98;6.00;;;;;;;26.02;52.44;100038.82;1704902;83;21501;-71
2022/07/30 08:39:37;;;;;;;11.95;5.28;;;;;;;26.09;52.19;100031.33;1712771;81;20998;-73
2022/07/30 08:42:08;;;;;;;7.40;4.67;;;;;;;26.21;51.29;100031.38;1714477;82;21035;-69
2022/07/30 08:44:35;;;;;;;8.33;4.28;;;;;;;26.27;50.89;100023.68;1728578;82;21099;-69
2022/07/30 08:47:04;;;;;;;5.78;3.95;;;;;;;26.35;50.80;100019.98;1715188;81;21055;-71
2022/07/30 08:49:49;;;;;;;8.83;4.72;;;;;;;26.48;50.80;100014.66;1646823;86;21392;-69
2022/07/30 08:52:17;;;;;;;12.95;4.22;;;;;;;26.63;50.41;100014.52;1681592;83;21590;-66
2022/07/30 08:54:50;;;;;;;5.10;4.37;;;;;;;26.73;50.08;100014.03;1704403;83;21031;-71
2022/07/30 08:57:16;;;;;;;4.40;3.98;;;;;;;26.79;48.97;100017.59;1699863;84;21594;-67
2022/07/30 08:59:45;;;;;;;7.50;6.30;;;;;;;26.76;48.63;100014.13;1686408;84;21540;-69
2022/07/30 09:02:13;;;;;;;10.23;5.80;;;;;;;26.80;48.35;100008.16;1694494;84;21150;-69
2022/07/30 09:04:42;;;;;;;10.90;7.97;;;;;;;26.87;47.89;100008.95;1694214;84;21064;-67
2022/07/30 09:07:10;;;;;;;9.13;4.75;;;;;;;26.85;47.75;100003.77;1700163;84;21132;-71
2022/07/30 09:09:37;;;;;;;3.27;2.92;;;;;;;26.87;47.75;100000.09;1697091;84;21106;-69
2022/07/30 09:12:32;;;;;;;5.53;3.92;;;;;;;27.00;47.10;99996.73;1704302;82;21040;-68
2022/07/30 09:15:12;;;;;;;3.60;3.30;;;;;;;27.15;46.60;99990.98;1688812;82;21056;-69
2022/07/30 09:17:57;;;;;;;3.60;2.95;;;;;;;27.29;45.90;99994.94;1667420;84;21059;-67
2022/07/30 09:20:34;;;;;;;4.00;2.75;;;;;;;27.37;45.49;99988.23;1691277;84;21040;-69
2022/07/30 09:23:05;;;;;;;3.75;3.27;;;;;;;27.47;45.17;99993.24;1732116;81;21171;-70
2022/07/30 09:25:50;;;;;;;5.22;3.72;;;;;;;27.51;44.68;99993.59;1732814;81;21150;-72
2022/07/30 09:28:36;;;;;;;5.80;3.80;;;;;;;27.48;45.25;99986.56;1730106;81;21181;-72
2022/07/30 09:31:17;;;;;;;3.62;3.30;;;;;;;27.53;45.19;99985.73;1700365;82;21042;-69
2022/07/30 09:34:04;;;;;;;3.35;3.02;;;;;;;27.51;44.97;99980.34;1704587;81;21080;-68
2022/07/30 09:36:40;;;;;;;5.28;4.05;;;;;;;27.55;45.33;99986.19;1600090;84;21043;-69
2022/07/30 09:39:38;;;;;;;4.47;3.15;;;;;;;27.63;45.24;99978.86;1699680;83;21127;-69
2022/07/30 09:42:25;;;;;;;3.35;3.05;;;;;;;27.79;45.12;99977.48;1693352;81;26503;-67
2022/07/30 09:45:10;;;;;;;4.40;3.35;;;;;;;27.98;43.41;99983.08;1673442;84;27463;-68
2022/07/30 09:47:40;;;;;;;4.50;2.92;;;;;;;28.06;43.06;99987.03;1629747;85;21632;-67
2022/07/30 09:50:11;;;;;;;2.98;2.77;;;;;;;28.22;43.17;99987.04;1723615;82;21068;-73
2022/07/30 09:52:40;;;;;;;4.83;2.98;;;;;;;28.41;42.41;99984.31;1697880;83;21083;-72
2022/07/30 09:55:08;;;;;;;7.22;3.92;;;;;;;28.44;42.19;99981.42;1686478;83;21134;-69
2022/07/30 09:57:56;;;;;;;4.00;2.52;;;;;;;28.50;42.18;99984.90;1704970;81;21009;-67
2022/07/30 10:00:26;;;;;;;7.78;3.25;;;;;;;28.56;41.61;99985.42;1693708;84;21093;-69
2022/07/30 10:02:56;;;;;;;3.60;3.00;;;;;;;28.57;41.26;99978.73;1694066;83;21252;-67
2022/07/30 10:05:55;;;;;;;5.12;3.05;;;;;;;28.57;41.26;99978.73;1725083;81;21134;-69
2022/07/30 10:08:49;;;;;;;4.25;3.02;;;;;;;28.64;41.49;99973.32;1711454;82;21910;-69
2022/07/30 10:11:25;;;;;;;4.50;2.77;;;;;;;28.75;41.23;99973.00;1673771;85;20981;-71
2022/07/30 10:13:54;;;;;;;5.22;3.10;;;;;;;28.83;41.01;99983.63;1667839;84;21123;-68
2022/07/30 10:16:27;;;;;;;3.70;3.40;;;;;;;28.90;41.22;99986.55;1674524;85;37800;-68
2022/07/30 10:18:59;;;;;;;;;;;;;;;28.98;40.65;99979.98;1657700;85;21561;-68
2022/07/30 10:21:44;;;;;;;2.67;2.45;;;;;;;29.04;40.37;99982.67;1682387;83;21258;-70
2022/07/30 10:24:31;;;;;;;3.22;2.83;;;;;;;28.99;39.69;99976.05;1724213;82;20988;-69
2022/07/30 10:27:03;;;;;;;7.62;4.15;;;;;;;28.83;40.23;99978.09;1725019;82;21104;-74
2022/07/30 10:29:48;;;;;;;3.58;3.22;;;;;;;28.83;40.21;99980.86;1728003;81;21057;-68
2022/07/30 10:32:16;;;;;;;6.47;3.20;;;;;;;28.68;40.34;99974.80;1705369;83;20996;-68
2022/07/30 10:34:46;;;;;;;4.50;3.05;;;;;;;28.57;41.02;99977.34;1721980;82;21542;-70
2022/07/30 10:37:15;;;;;;;3.77;2.33;;;;;;;28.53;40.54;99975.89;1670011;84;21155;-70
2022/07/30 10:40:04;;;;;;;7.78;4.05;;;;;;;28.49;40.82;99979.14;1728797;83;21106;-68
2022/07/30 10:42:56;;;;;;;4.00;3.27;;;;;;;28.55;41.29;99978.28;1715205;83;21483;-67
2022/07/30 10:45:48;;;;;;;6.25;3.75;;;;;;;28.57;40.68;99980.11;1702555;83;21111;-72
2022/07/30 10:48:18;;;;;;;6.08;3.15;;;;;;;28.51;40.88;99983.74;1701067;83;21270;-71
2022/07/30 10:50:50;;;;;;;7.83;3.08;;;;;;;28.53;40.91;99984.77;1693627;83;21015;-72
2022/07/30 10:53:39;;;;;;;4.37;3.45;;;;;;;28.60;40.63;99983.52;1695694;82;21017;-71
2022/07/30 10:56:20;;;;;;;7.30;3.05;;;;;;;28.65;40.39;99981.05;1716639;83;21108;-73
2022/07/30 10:59:09;;;;;;;3.30;2.67;;;;;;;28.65;40.84;99978.28;1697034;83;20985;-74
2022/07/30 11:01:54;;;;;;;9.05;3.85;;;;;;;28.64;41.11;99976.09;1701644;83;21130;-70
2022/07/30 11:04:26;;;;;;;8.20;3.90;;;;;;;28.76;40.94;99972.42;1690978;84;20995;-76
2022/07/30 11:07:28;;;;;;;5.85;3.20;;;;;;;28.77;40.41;99973.45;1692138;84;21021;-77
2022/07/30 11:10:01;;;;;;;4.50;3.50;;;;;;;28.80;40.48;99967.75;1714510;81;20964;-72
2022/07/30 11:12:47;;;;;;;4.33;3.92;;;;;;;28.92;40.09;99967.00;1699746;81;21015;-76
2022/07/30 11:15:16;;;;;;;3.87;3.40;;;;;;;29.03;39.43;99961.09;1693834;84;21170;-73
2022/07/30 11:18:05;;;;;;;4.78;3.62;;;;;;;29.06;39.24;99961.55;1702633;82;20995;-75
2022/07/30 11:20:35;;;;;;;10.15;3.40;;;;;;;29.07;39.17;99965.31;1718129;81;21024;-76
2022/07/30 11:23:26;;;;;;;9.38;6.45;;;;;;;29.14;39.91;99964.08;1727081;82;21507;-70
2022/07/30 11:25:53;;;;;;;3.60;3.22;;;;;;;29.25;39.99;99961.50;1703571;84;21581;-74
2022/07/30 11:28:43;;;;;;;3.37;2.90;;;;;;;29.43;39.46;99952.95;1722765;82;21555;-75
2022/07/30 11:31:33;;;;;;;3.95;3.08;;;;;;;29.54;39.22;99948.39;1663559;84;21084;-72
2022/07/30 11:34:24;;;;;;;11.33;3.05;;;;;;;29.65;39.01;99941.61;1710782;82;21038;-71
2022/07/30 11:37:17;;;;;;;3.98;3.00;;;;;;;29.63;38.96;99949.52;1670388;84;22065;-73
2022/07/30 11:39:59;;;;;;;3.52;3.22;;;;;;;29.55;39.43;99949.97;1656918;86;21051;-78
2022/07/30 11:42:30;;;;;;;3.52;3.22;;;;;;;29.49;39.40;99954.25;1702288;82;21019;-77
2022/07/30 11:45:22;;;;;;;12.30;3.58;;;;;;;29.35;39.75;99950.62;1702371;84;21027;-69
2022/07/30 11:47:51;;;;;;;7.25;3.55;;;;;;;29.28;40.04;99946.91;1679984;84;21623;-75
2022/07/30 11:50:32;;;;;;;4.97;3.42;;;;;;;29.23;40.08;99945.23;1700390;82;20973;-74